KMOD/MOD METAR and TAF weather

Enter ICAO airport designator
Station Type Date Time Source
KMOD METAR 2020/03/31 06:53 UTC NOAA

KMOD 310653Z AUTO 32008KT 10SM CLR 12/08 A3026 RMK AO2 SLP247 T01220083 $


Station Type Date Time Source
KMOD Decoded METAR 2020/03/31 06:53 UTC NOAA

MODESTO CITY CO SHAM FLD, CA, United States (KMOD) 37-37N 120-57W 29M
Mar 31, 2020 - 02:53 AM EDT / 2020.03.31 0653 UTC
Wind: from the NW (320 degrees) at 9 MPH (8 KT):0
Visibility: 10 mile(s):0
Sky conditions: clear
Temperature: 54.0 F (12.2 C)
Dew Point: 46.9 F (8.3 C)
Relative Humidity: 77%
Pressure (altimeter): 30.26 in. Hg (1024 hPa)
ob: KMOD 310653Z AUTO 32008KT 10SM CLR 12/08 A3026 RMK AO2 SLP247 T01220083
cycle: 7

Station Type Date Time Source
KMOD TAF 2020/03/31 06:25 UTC NOAA

TAF KMOD 310520Z 3106/0106 32007KT P6SM SCT250
FM312100 32009KT P6SM SCT040 BKN250
FM010300 31011KT P6SM SCT250

Example: see airport list